sensor_id;sensor_type;location;lat;lon;timestamp;P1;durP1;ratioP1;P2;durP2;ratioP2
79375;SDS011;68846;53.150;18.136;2023-04-19T00:01:28;5.80;;;2.80;;
79375;SDS011;68846;53.150;18.136;2023-04-19T00:03:55;5.50;;;2.60;;
79375;SDS011;68846;53.150;18.136;2023-04-19T00:08:50;7.50;;;2.60;;
79375;SDS011;68846;53.150;18.136;2023-04-19T00:11:17;4.60;;;2.50;;
79375;SDS011;68846;53.150;18.136;2023-04-19T00:13:43;5.80;;;2.60;;
79375;SDS011;68846;53.150;18.136;2023-04-19T00:16:10;4.90;;;2.90;;
79375;SDS011;68846;53.150;18.136;2023-04-19T00:18:38;6.70;;;2.70;;
79375;SDS011;68846;53.150;18.136;2023-04-19T00:21:06;5.00;;;2.60;;
79375;SDS011;68846;53.150;18.136;2023-04-19T00:23:33;5.70;;;2.30;;
79375;SDS011;68846;53.150;18.136;2023-04-19T00:26:03;5.40;;;2.60;;
79375;SDS011;68846;53.150;18.136;2023-04-19T00:28:30;4.00;;;2.40;;
79375;SDS011;68846;53.150;18.136;2023-04-19T00:30:57;5.30;;;2.90;;
79375;SDS011;68846;53.150;18.136;2023-04-19T00:33:23;5.80;;;3.20;;
79375;SDS011;68846;53.150;18.136;2023-04-19T00:35:50;5.10;;;2.90;;
79375;SDS011;68846;53.150;18.136;2023-04-19T00:38:19;6.00;;;2.50;;
79375;SDS011;68846;53.150;18.136;2023-04-19T00:40:46;6.50;;;2.70;;
79375;SDS011;68846;53.150;18.136;2023-04-19T00:43:16;8.10;;;3.10;;
79375;SDS011;68846;53.150;18.136;2023-04-19T00:45:44;5.20;;;2.70;;
79375;SDS011;68846;53.150;18.136;2023-04-19T00:48:14;8.20;;;2.80;;
79375;SDS011;68846;53.150;18.136;2023-04-19T00:50:42;5.20;;;2.50;;
79375;SDS011;68846;53.150;18.136;2023-04-19T00:53:10;5.30;;;2.30;;
79375;SDS011;68846;53.150;18.136;2023-04-19T00:55:38;5.30;;;2.70;;
79375;SDS011;68846;53.150;18.136;2023-04-19T00:58:06;4.80;;;2.50;;
79375;SDS011;68846;53.150;18.136;2023-04-19T01:00:34;6.10;;;2.80;;
79375;SDS011;68846;53.150;18.136;2023-04-19T01:03:01;4.60;;;2.50;;
79375;SDS011;68846;53.150;18.136;2023-04-19T01:05:29;7.10;;;2.70;;
79375;SDS011;68846;53.150;18.136;2023-04-19T01:07:56;5.70;;;2.90;;
79375;SDS011;68846;53.150;18.136;2023-04-19T01:10:23;6.70;;;2.90;;
79375;SDS011;68846;53.150;18.136;2023-04-19T01:12:50;7.00;;;2.70;;
79375;SDS011;68846;53.150;18.136;2023-04-19T01:17:43;8.30;;;3.10;;
79375;SDS011;68846;53.150;18.136;2023-04-19T01:20:10;9.10;;;3.50;;
79375;SDS011;68846;53.150;18.136;2023-04-19T01:22:38;4.60;;;2.70;;
79375;SDS011;68846;53.150;18.136;2023-04-19T01:25:05;6.80;;;2.90;;
79375;SDS011;68846;53.150;18.136;2023-04-19T01:27:34;4.50;;;2.70;;
79375;SDS011;68846;53.150;18.136;2023-04-19T01:30:01;4.80;;;2.50;;
79375;SDS011;68846;53.150;18.136;2023-04-19T01:32:28;5.40;;;2.30;;
79375;SDS011;68846;53.150;18.136;2023-04-19T01:34:55;4.10;;;2.20;;
79375;SDS011;68846;53.150;18.136;2023-04-19T01:37:22;4.80;;;2.50;;
79375;SDS011;68846;53.150;18.136;2023-04-19T01:39:49;5.00;;;2.80;;
79375;SDS011;68846;53.150;18.136;2023-04-19T01:42:16;5.90;;;3.10;;
79375;SDS011;68846;53.150;18.136;2023-04-19T01:44:43;5.10;;;2.70;;
79375;SDS011;68846;53.150;18.136;2023-04-19T01:47:09;7.20;;;2.70;;
79375;SDS011;68846;53.150;18.136;2023-04-19T01:49:36;5.00;;;3.10;;
79375;SDS011;68846;53.150;18.136;2023-04-19T01:52:03;6.20;;;3.40;;
79375;SDS011;68846;53.150;18.136;2023-04-19T01:54:30;6.80;;;2.70;;
79375;SDS011;68846;53.150;18.136;2023-04-19T01:56:58;4.10;;;2.30;;
79375;SDS011;68846;53.150;18.136;2023-04-19T02:01:51;4.90;;;2.60;;
79375;SDS011;68846;53.150;18.136;2023-04-19T02:04:21;3.50;;;2.60;;
79375;SDS011;68846;53.150;18.136;2023-04-19T02:06:48;7.70;;;3.10;;
79375;SDS011;68846;53.150;18.136;2023-04-19T02:09:15;7.70;;;3.80;;
79375;SDS011;68846;53.150;18.136;2023-04-19T02:11:42;6.60;;;3.00;;
79375;SDS011;68846;53.150;18.136;2023-04-19T02:14:08;5.60;;;2.70;;
79375;SDS011;68846;53.150;18.136;2023-04-19T02:16:36;4.30;;;2.40;;
79375;SDS011;68846;53.150;18.136;2023-04-19T02:19:02;6.40;;;2.80;;
79375;SDS011;68846;53.150;18.136;2023-04-19T02:21:29;3.40;;;2.30;;
79375;SDS011;68846;53.150;18.136;2023-04-19T02:23:57;6.20;;;3.10;;
79375;SDS011;68846;53.150;18.136;2023-04-19T02:28:52;6.80;;;2.30;;
79375;SDS011;68846;53.150;18.136;2023-04-19T02:31:19;6.90;;;3.20;;
79375;SDS011;68846;53.150;18.136;2023-04-19T02:33:46;6.00;;;2.90;;
79375;SDS011;68846;53.150;18.136;2023-04-19T02:38:39;5.60;;;2.80;;
79375;SDS011;68846;53.150;18.136;2023-04-19T02:41:06;4.70;;;2.60;;
79375;SDS011;68846;53.150;18.136;2023-04-19T02:43:33;4.80;;;3.10;;
79375;SDS011;68846;53.150;18.136;2023-04-19T02:46:00;5.20;;;2.80;;
79375;SDS011;68846;53.150;18.136;2023-04-19T02:48:27;5.50;;;2.90;;
79375;SDS011;68846;53.150;18.136;2023-04-19T02:50:54;10.80;;;3.10;;
79375;SDS011;68846;53.150;18.136;2023-04-19T02:55:49;5.50;;;3.00;;
79375;SDS011;68846;53.150;18.136;2023-04-19T02:58:18;9.80;;;3.20;;
79375;SDS011;68846;53.150;18.136;2023-04-19T03:01:05;6.20;;;2.70;;
79375;SDS011;68846;53.150;18.136;2023-04-19T03:03:32;6.20;;;2.60;;
79375;SDS011;68846;53.150;18.136;2023-04-19T03:05:59;9.20;;;3.30;;
79375;SDS011;68846;53.150;18.136;2023-04-19T03:08:26;7.00;;;3.00;;
79375;SDS011;68846;53.150;18.136;2023-04-19T03:10:52;5.90;;;3.20;;
79375;SDS011;68846;53.150;18.136;2023-04-19T03:13:19;8.30;;;2.90;;
79375;SDS011;68846;53.150;18.136;2023-04-19T03:15:46;6.00;;;3.20;;
79375;SDS011;68846;53.150;18.136;2023-04-19T03:18:13;7.20;;;3.00;;
79375;SDS011;68846;53.150;18.136;2023-04-19T03:20:41;5.40;;;3.40;;
79375;SDS011;68846;53.150;18.136;2023-04-19T03:23:08;7.50;;;3.00;;
79375;SDS011;68846;53.150;18.136;2023-04-19T03:25:36;9.10;;;3.60;;
79375;SDS011;68846;53.150;18.136;2023-04-19T03:28:14;11.30;;;3.60;;
79375;SDS011;68846;53.150;18.136;2023-04-19T03:31:00;8.20;;;4.40;;
79375;SDS011;68846;53.150;18.136;2023-04-19T03:33:28;5.60;;;2.90;;
79375;SDS011;68846;53.150;18.136;2023-04-19T03:35:55;5.40;;;2.90;;
79375;SDS011;68846;53.150;18.136;2023-04-19T03:38:22;5.10;;;2.60;;
79375;SDS011;68846;53.150;18.136;2023-04-19T03:40:50;8.70;;;3.40;;
79375;SDS011;68846;53.150;18.136;2023-04-19T03:43:17;4.90;;;2.90;;
79375;SDS011;68846;53.150;18.136;2023-04-19T03:45:44;5.50;;;2.90;;
79375;SDS011;68846;53.150;18.136;2023-04-19T03:48:11;5.90;;;2.80;;
79375;SDS011;68846;53.150;18.136;2023-04-19T03:50:38;4.70;;;2.50;;
79375;SDS011;68846;53.150;18.136;2023-04-19T03:53:05;6.80;;;3.30;;
79375;SDS011;68846;53.150;18.136;2023-04-19T03:55:32;6.90;;;3.50;;
79375;SDS011;68846;53.150;18.136;2023-04-19T03:57:59;9.40;;;3.50;;
79375;SDS011;68846;53.150;18.136;2023-04-19T04:00:38;7.20;;;3.40;;
79375;SDS011;68846;53.150;18.136;2023-04-19T04:03:06;5.90;;;3.50;;
79375;SDS011;68846;53.150;18.136;2023-04-19T04:05:34;5.30;;;3.50;;
79375;SDS011;68846;53.150;18.136;2023-04-19T04:08:02;6.50;;;3.40;;
79375;SDS011;68846;53.150;18.136;2023-04-19T04:10:29;6.60;;;3.40;;
79375;SDS011;68846;53.150;18.136;2023-04-19T04:12:56;8.60;;;3.80;;
79375;SDS011;68846;53.150;18.136;2023-04-19T04:15:33;8.70;;;3.60;;
79375;SDS011;68846;53.150;18.136;2023-04-19T04:18:00;8.90;;;3.90;;
79375;SDS011;68846;53.150;18.136;2023-04-19T04:20:27;10.10;;;4.50;;
79375;SDS011;68846;53.150;18.136;2023-04-19T04:22:58;6.40;;;4.00;;
79375;SDS011;68846;53.150;18.136;2023-04-19T04:25:25;8.90;;;3.70;;
79375;SDS011;68846;53.150;18.136;2023-04-19T04:27:55;8.00;;;4.00;;
79375;SDS011;68846;53.150;18.136;2023-04-19T04:30:23;6.00;;;2.90;;
79375;SDS011;68846;53.150;18.136;2023-04-19T04:32:50;8.20;;;3.60;;
79375;SDS011;68846;53.150;18.136;2023-04-19T04:35:18;9.10;;;3.70;;
79375;SDS011;68846;53.150;18.136;2023-04-19T04:37:53;8.90;;;3.30;;
79375;SDS011;68846;53.150;18.136;2023-04-19T04:40:20;7.90;;;4.40;;
79375;SDS011;68846;53.150;18.136;2023-04-19T04:42:47;7.60;;;3.40;;
79375;SDS011;68846;53.150;18.136;2023-04-19T04:45:16;8.90;;;4.30;;
79375;SDS011;68846;53.150;18.136;2023-04-19T04:47:44;8.50;;;3.60;;
79375;SDS011;68846;53.150;18.136;2023-04-19T04:50:12;9.00;;;3.20;;
79375;SDS011;68846;53.150;18.136;2023-04-19T04:52:39;5.50;;;3.40;;
79375;SDS011;68846;53.150;18.136;2023-04-19T04:55:09;8.30;;;3.20;;
79375;SDS011;68846;53.150;18.136;2023-04-19T04:57:41;5.10;;;3.00;;
79375;SDS011;68846;53.150;18.136;2023-04-19T05:00:10;9.50;;;3.10;;
79375;SDS011;68846;53.150;18.136;2023-04-19T05:02:43;10.30;;;3.70;;
79375;SDS011;68846;53.150;18.136;2023-04-19T05:05:10;8.10;;;3.30;;
79375;SDS011;68846;53.150;18.136;2023-04-19T05:10:30;8.60;;;3.20;;
79375;SDS011;68846;53.150;18.136;2023-04-19T05:12:57;11.50;;;3.50;;
79375;SDS011;68846;53.150;18.136;2023-04-19T05:15:25;9.60;;;3.70;;
79375;SDS011;68846;53.150;18.136;2023-04-19T05:17:54;10.60;;;3.60;;
79375;SDS011;68846;53.150;18.136;2023-04-19T05:20:21;5.90;;;3.30;;
79375;SDS011;68846;53.150;18.136;2023-04-19T05:22:55;8.80;;;2.70;;
79375;SDS011;68846;53.150;18.136;2023-04-19T05:25:23;4.60;;;2.80;;
79375;SDS011;68846;53.150;18.136;2023-04-19T05:27:50;6.40;;;3.10;;
79375;SDS011;68846;53.150;18.136;2023-04-19T05:30:17;6.70;;;3.10;;
79375;SDS011;68846;53.150;18.136;2023-04-19T05:32:44;9.80;;;2.90;;
79375;SDS011;68846;53.150;18.136;2023-04-19T05:35:12;6.60;;;3.10;;
79375;SDS011;68846;53.150;18.136;2023-04-19T05:40:07;9.30;;;2.90;;
79375;SDS011;68846;53.150;18.136;2023-04-19T05:42:37;9.00;;;2.70;;
79375;SDS011;68846;53.150;18.136;2023-04-19T05:45:05;6.60;;;3.40;;
79375;SDS011;68846;53.150;18.136;2023-04-19T05:47:32;8.80;;;2.80;;
79375;SDS011;68846;53.150;18.136;2023-04-19T05:50:18;8.70;;;3.00;;
79375;SDS011;68846;53.150;18.136;2023-04-19T05:53:05;9.00;;;3.70;;
79375;SDS011;68846;53.150;18.136;2023-04-19T05:55:32;7.50;;;2.80;;
79375;SDS011;68846;53.150;18.136;2023-04-19T05:58:00;5.30;;;2.50;;
79375;SDS011;68846;53.150;18.136;2023-04-19T06:00:27;7.50;;;2.70;;
79375;SDS011;68846;53.150;18.136;2023-04-19T06:02:58;4.80;;;3.00;;
79375;SDS011;68846;53.150;18.136;2023-04-19T06:07:52;6.40;;;2.90;;
79375;SDS011;68846;53.150;18.136;2023-04-19T06:10:21;9.40;;;3.50;;
79375;SDS011;68846;53.150;18.136;2023-04-19T06:12:49;8.80;;;2.90;;
79375;SDS011;68846;53.150;18.136;2023-04-19T06:15:16;8.10;;;3.10;;
79375;SDS011;68846;53.150;18.136;2023-04-19T06:17:43;5.00;;;3.00;;
79375;SDS011;68846;53.150;18.136;2023-04-19T06:20:10;7.10;;;2.80;;
79375;SDS011;68846;53.150;18.136;2023-04-19T06:22:41;8.80;;;2.90;;
79375;SDS011;68846;53.150;18.136;2023-04-19T06:25:10;5.80;;;2.70;;
79375;SDS011;68846;53.150;18.136;2023-04-19T06:27:37;5.20;;;2.60;;
79375;SDS011;68846;53.150;18.136;2023-04-19T06:30:04;8.80;;;3.00;;
79375;SDS011;68846;53.150;18.136;2023-04-19T06:32:32;4.80;;;2.90;;
79375;SDS011;68846;53.150;18.136;2023-04-19T06:34:59;6.00;;;2.90;;
79375;SDS011;68846;53.150;18.136;2023-04-19T06:37:26;6.50;;;3.10;;
79375;SDS011;68846;53.150;18.136;2023-04-19T06:39:53;5.40;;;2.90;;
79375;SDS011;68846;53.150;18.136;2023-04-19T06:42:21;6.60;;;3.10;;
79375;SDS011;68846;53.150;18.136;2023-04-19T06:44:50;6.70;;;3.40;;
79375;SDS011;68846;53.150;18.136;2023-04-19T06:49:44;7.10;;;3.30;;
79375;SDS011;68846;53.150;18.136;2023-04-19T06:54:38;6.10;;;2.80;;
79375;SDS011;68846;53.150;18.136;2023-04-19T06:57:05;7.00;;;3.30;;
79375;SDS011;68846;53.150;18.136;2023-04-19T06:59:32;6.40;;;3.40;;
79375;SDS011;68846;53.150;18.136;2023-04-19T07:01:59;7.30;;;3.70;;
79375;SDS011;68846;53.150;18.136;2023-04-19T07:04:25;5.70;;;3.30;;
79375;SDS011;68846;53.150;18.136;2023-04-19T07:06:52;7.00;;;3.50;;
79375;SDS011;68846;53.150;18.136;2023-04-19T07:09:19;6.90;;;3.10;;
79375;SDS011;68846;53.150;18.136;2023-04-19T07:11:47;5.20;;;3.00;;
79375;SDS011;68846;53.150;18.136;2023-04-19T07:14:16;6.90;;;3.40;;
79375;SDS011;68846;53.150;18.136;2023-04-19T07:16:45;9.10;;;4.20;;
79375;SDS011;68846;53.150;18.136;2023-04-19T07:19:12;8.40;;;3.90;;
79375;SDS011;68846;53.150;18.136;2023-04-19T07:24:06;9.20;;;3.50;;
79375;SDS011;68846;53.150;18.136;2023-04-19T07:26:33;8.00;;;3.40;;
79375;SDS011;68846;53.150;18.136;2023-04-19T07:31:27;6.50;;;3.10;;
79375;SDS011;68846;53.150;18.136;2023-04-19T07:33:54;7.40;;;3.40;;
79375;SDS011;68846;53.150;18.136;2023-04-19T07:38:47;6.60;;;3.10;;
79375;SDS011;68846;53.150;18.136;2023-04-19T07:41:14;6.40;;;4.00;;
79375;SDS011;68846;53.150;18.136;2023-04-19T07:46:09;10.60;;;4.40;;
79375;SDS011;68846;53.150;18.136;2023-04-19T07:48:37;9.20;;;4.00;;
79375;SDS011;68846;53.150;18.136;2023-04-19T07:51:10;7.90;;;4.00;;
79375;SDS011;68846;53.150;18.136;2023-04-19T07:53:39;9.10;;;4.30;;
79375;SDS011;68846;53.150;18.136;2023-04-19T07:56:09;7.50;;;3.70;;
79375;SDS011;68846;53.150;18.136;2023-04-19T07:58:36;8.50;;;4.40;;
79375;SDS011;68846;53.150;18.136;2023-04-19T08:01:04;9.80;;;3.70;;
79375;SDS011;68846;53.150;18.136;2023-04-19T08:03:34;7.40;;;4.20;;
79375;SDS011;68846;53.150;18.136;2023-04-19T08:06:02;8.40;;;4.80;;
79375;SDS011;68846;53.150;18.136;2023-04-19T08:08:31;8.60;;;4.30;;
79375;SDS011;68846;53.150;18.136;2023-04-19T08:10:57;8.30;;;5.00;;
79375;SDS011;68846;53.150;18.136;2023-04-19T08:13:24;12.30;;;7.20;;
79375;SDS011;68846;53.150;18.136;2023-04-19T08:15:51;10.40;;;4.70;;
79375;SDS011;68846;53.150;18.136;2023-04-19T08:18:19;10.60;;;4.50;;
79375;SDS011;68846;53.150;18.136;2023-04-19T08:20:46;8.60;;;4.30;;
79375;SDS011;68846;53.150;18.136;2023-04-19T08:23:13;9.00;;;4.10;;
79375;SDS011;68846;53.150;18.136;2023-04-19T08:25:40;7.90;;;4.20;;
79375;SDS011;68846;53.150;18.136;2023-04-19T08:28:07;7.40;;;4.30;;
79375;SDS011;68846;53.150;18.136;2023-04-19T08:30:34;10.10;;;4.20;;
79375;SDS011;68846;53.150;18.136;2023-04-19T08:33:01;10.70;;;4.30;;
79375;SDS011;68846;53.150;18.136;2023-04-19T08:35:28;8.40;;;4.20;;
79375;SDS011;68846;53.150;18.136;2023-04-19T08:37:55;9.10;;;4.50;;
79375;SDS011;68846;53.150;18.136;2023-04-19T08:40:21;8.70;;;5.00;;
79375;SDS011;68846;53.150;18.136;2023-04-19T08:42:49;9.70;;;4.60;;
79375;SDS011;68846;53.150;18.136;2023-04-19T08:45:16;8.90;;;4.70;;
79375;SDS011;68846;53.150;18.136;2023-04-19T08:47:47;7.30;;;4.20;;
79375;SDS011;68846;53.150;18.136;2023-04-19T08:50:14;8.00;;;4.60;;
79375;SDS011;68846;53.150;18.136;2023-04-19T08:52:43;8.70;;;4.50;;
79375;SDS011;68846;53.150;18.136;2023-04-19T08:55:11;7.00;;;4.50;;
79375;SDS011;68846;53.150;18.136;2023-04-19T08:57:38;7.90;;;4.90;;
79375;SDS011;68846;53.150;18.136;2023-04-19T09:00:05;7.00;;;4.60;;
79375;SDS011;68846;53.150;18.136;2023-04-19T09:05:19;7.00;;;4.50;;
79375;SDS011;68846;53.150;18.136;2023-04-19T09:07:46;9.10;;;4.90;;
79375;SDS011;68846;53.150;18.136;2023-04-19T09:13:03;7.60;;;4.70;;
79375;SDS011;68846;53.150;18.136;2023-04-19T09:15:37;8.40;;;4.60;;
79375;SDS011;68846;53.150;18.136;2023-04-19T09:18:07;9.40;;;4.40;;
79375;SDS011;68846;53.150;18.136;2023-04-19T09:20:36;7.50;;;4.70;;
79375;SDS011;68846;53.150;18.136;2023-04-19T09:23:08;8.70;;;4.50;;
79375;SDS011;68846;53.150;18.136;2023-04-19T09:25:38;6.20;;;4.00;;
79375;SDS011;68846;53.150;18.136;2023-04-19T09:28:12;7.70;;;4.60;;
79375;SDS011;68846;53.150;18.136;2023-04-19T09:30:41;7.90;;;4.80;;
79375;SDS011;68846;53.150;18.136;2023-04-19T09:33:08;8.30;;;4.90;;
79375;SDS011;68846;53.150;18.136;2023-04-19T09:35:47;7.10;;;4.30;;
79375;SDS011;68846;53.150;18.136;2023-04-19T09:38:15;7.80;;;4.00;;
79375;SDS011;68846;53.150;18.136;2023-04-19T09:40:42;10.40;;;4.80;;
79375;SDS011;68846;53.150;18.136;2023-04-19T09:43:09;8.40;;;3.70;;
79375;SDS011;68846;53.150;18.136;2023-04-19T09:48:09;7.00;;;4.20;;
79375;SDS011;68846;53.150;18.136;2023-04-19T09:50:50;7.70;;;5.30;;
79375;SDS011;68846;53.150;18.136;2023-04-19T09:53:22;8.00;;;4.30;;
79375;SDS011;68846;53.150;18.136;2023-04-19T09:55:50;8.50;;;4.50;;
79375;SDS011;68846;53.150;18.136;2023-04-19T09:58:20;8.20;;;4.70;;
79375;SDS011;68846;53.150;18.136;2023-04-19T10:00:48;6.30;;;4.50;;
79375;SDS011;68846;53.150;18.136;2023-04-19T10:03:17;6.40;;;4.10;;
79375;SDS011;68846;53.150;18.136;2023-04-19T10:05:45;10.80;;;4.80;;
79375;SDS011;68846;53.150;18.136;2023-04-19T10:10:40;6.90;;;4.50;;
79375;SDS011;68846;53.150;18.136;2023-04-19T10:13:09;8.50;;;4.60;;
79375;SDS011;68846;53.150;18.136;2023-04-19T10:15:39;8.40;;;4.90;;
79375;SDS011;68846;53.150;18.136;2023-04-19T10:18:09;6.50;;;4.10;;
79375;SDS011;68846;53.150;18.136;2023-04-19T10:23:27;9.20;;;4.80;;
79375;SDS011;68846;53.150;18.136;2023-04-19T10:25:56;7.70;;;5.00;;
79375;SDS011;68846;53.150;18.136;2023-04-19T10:28:24;8.30;;;4.20;;
79375;SDS011;68846;53.150;18.136;2023-04-19T10:31:00;8.10;;;4.40;;
79375;SDS011;68846;53.150;18.136;2023-04-19T10:33:36;7.50;;;4.60;;
79375;SDS011;68846;53.150;18.136;2023-04-19T10:36:03;8.30;;;4.60;;
79375;SDS011;68846;53.150;18.136;2023-04-19T10:38:38;7.00;;;4.50;;
79375;SDS011;68846;53.150;18.136;2023-04-19T10:41:09;6.40;;;4.40;;
79375;SDS011;68846;53.150;18.136;2023-04-19T10:43:42;8.40;;;5.10;;
79375;SDS011;68846;53.150;18.136;2023-04-19T10:48:53;12.80;;;5.10;;
79375;SDS011;68846;53.150;18.136;2023-04-19T10:51:27;7.20;;;5.00;;
79375;SDS011;68846;53.150;18.136;2023-04-19T10:53:55;8.90;;;5.00;;
79375;SDS011;68846;53.150;18.136;2023-04-19T11:01:37;7.30;;;4.20;;
79375;SDS011;68846;53.150;18.136;2023-04-19T11:07:16;8.30;;;4.50;;
79375;SDS011;68846;53.150;18.136;2023-04-19T11:09:52;6.20;;;4.10;;
79375;SDS011;68846;53.150;18.136;2023-04-19T11:14:47;7.10;;;5.10;;
79375;SDS011;68846;53.150;18.136;2023-04-19T11:17:21;8.50;;;4.30;;
79375;SDS011;68846;53.150;18.136;2023-04-19T11:19:54;8.20;;;4.70;;
79375;SDS011;68846;53.150;18.136;2023-04-19T11:27:43;5.10;;;3.20;;
79375;SDS011;68846;53.150;18.136;2023-04-19T11:30:11;7.00;;;3.30;;
79375;SDS011;68846;53.150;18.136;2023-04-19T11:32:45;4.50;;;3.10;;
79375;SDS011;68846;53.150;18.136;2023-04-19T11:35:14;5.90;;;3.80;;
79375;SDS011;68846;53.150;18.136;2023-04-19T11:37:43;4.90;;;3.50;;
79375;SDS011;68846;53.150;18.136;2023-04-19T11:40:17;5.60;;;3.70;;
79375;SDS011;68846;53.150;18.136;2023-04-19T11:42:45;6.60;;;4.10;;
79375;SDS011;68846;53.150;18.136;2023-04-19T11:45:22;8.10;;;3.90;;
79375;SDS011;68846;53.150;18.136;2023-04-19T11:47:52;5.90;;;3.90;;
79375;SDS011;68846;53.150;18.136;2023-04-19T11:52:57;5.00;;;3.60;;
79375;SDS011;68846;53.150;18.136;2023-04-19T11:55:24;6.40;;;3.60;;
79375;SDS011;68846;53.150;18.136;2023-04-19T11:57:51;6.00;;;3.10;;
79375;SDS011;68846;53.150;18.136;2023-04-19T12:00:25;5.70;;;3.60;;
79375;SDS011;68846;53.150;18.136;2023-04-19T12:02:54;6.20;;;3.70;;
79375;SDS011;68846;53.150;18.136;2023-04-19T12:05:21;5.10;;;3.30;;
79375;SDS011;68846;53.150;18.136;2023-04-19T12:08:01;6.20;;;3.20;;
79375;SDS011;68846;53.150;18.136;2023-04-19T12:10:30;4.00;;;3.20;;
79375;SDS011;68846;53.150;18.136;2023-04-19T12:12:57;4.10;;;3.20;;
79375;SDS011;68846;53.150;18.136;2023-04-19T12:15:45;5.30;;;3.20;;
79375;SDS011;68846;53.150;18.136;2023-04-19T12:18:12;6.30;;;2.60;;
79375;SDS011;68846;53.150;18.136;2023-04-19T12:20:44;4.50;;;3.10;;
79375;SDS011;68846;53.150;18.136;2023-04-19T12:23:12;6.80;;;4.00;;
79375;SDS011;68846;53.150;18.136;2023-04-19T12:25:42;6.80;;;3.90;;
79375;SDS011;68846;53.150;18.136;2023-04-19T12:28:10;4.40;;;3.20;;
79375;SDS011;68846;53.150;18.136;2023-04-19T12:30:38;5.90;;;3.90;;
79375;SDS011;68846;53.150;18.136;2023-04-19T12:33:06;5.60;;;3.60;;
79375;SDS011;68846;53.150;18.136;2023-04-19T12:35:34;6.80;;;4.10;;
79375;SDS011;68846;53.150;18.136;2023-04-19T12:38:01;5.40;;;3.70;;
79375;SDS011;68846;53.150;18.136;2023-04-19T12:40:28;4.70;;;3.70;;
79375;SDS011;68846;53.150;18.136;2023-04-19T12:42:56;5.60;;;3.90;;
79375;SDS011;68846;53.150;18.136;2023-04-19T12:45:22;5.10;;;3.90;;
79375;SDS011;68846;53.150;18.136;2023-04-19T12:50:16;7.20;;;4.10;;
79375;SDS011;68846;53.150;18.136;2023-04-19T12:52:43;6.70;;;4.00;;
79375;SDS011;68846;53.150;18.136;2023-04-19T12:55:11;7.30;;;4.00;;
79375;SDS011;68846;53.150;18.136;2023-04-19T12:57:38;7.00;;;4.30;;
79375;SDS011;68846;53.150;18.136;2023-04-19T13:00:05;7.10;;;4.80;;
79375;SDS011;68846;53.150;18.136;2023-04-19T13:02:33;7.80;;;4.80;;
79375;SDS011;68846;53.150;18.136;2023-04-19T13:05:01;5.20;;;4.30;;
79375;SDS011;68846;53.150;18.136;2023-04-19T13:07:30;8.30;;;5.00;;
79375;SDS011;68846;53.150;18.136;2023-04-19T13:09:57;8.10;;;4.40;;
79375;SDS011;68846;53.150;18.136;2023-04-19T13:12:24;6.90;;;4.80;;
79375;SDS011;68846;53.150;18.136;2023-04-19T13:17:18;6.50;;;4.60;;
79375;SDS011;68846;53.150;18.136;2023-04-19T13:19:45;7.50;;;4.50;;
79375;SDS011;68846;53.150;18.136;2023-04-19T13:22:14;6.80;;;4.20;;
79375;SDS011;68846;53.150;18.136;2023-04-19T13:27:09;6.60;;;4.30;;
79375;SDS011;68846;53.150;18.136;2023-04-19T13:29:37;6.90;;;4.70;;
79375;SDS011;68846;53.150;18.136;2023-04-19T13:32:04;8.50;;;5.10;;
79375;SDS011;68846;53.150;18.136;2023-04-19T13:34:34;8.10;;;5.60;;
79375;SDS011;68846;53.150;18.136;2023-04-19T13:37:02;8.60;;;5.60;;
79375;SDS011;68846;53.150;18.136;2023-04-19T13:39:28;9.00;;;5.40;;
79375;SDS011;68846;53.150;18.136;2023-04-19T13:41:55;9.50;;;5.70;;
79375;SDS011;68846;53.150;18.136;2023-04-19T13:44:22;8.50;;;5.40;;
79375;SDS011;68846;53.150;18.136;2023-04-19T13:46:50;7.40;;;5.30;;
79375;SDS011;68846;53.150;18.136;2023-04-19T13:51:44;8.10;;;5.10;;
79375;SDS011;68846;53.150;18.136;2023-04-19T13:54:11;7.20;;;5.80;;
79375;SDS011;68846;53.150;18.136;2023-04-19T13:56:39;10.30;;;5.90;;
79375;SDS011;68846;53.150;18.136;2023-04-19T13:59:06;10.30;;;6.20;;
79375;SDS011;68846;53.150;18.136;2023-04-19T14:01:32;7.80;;;5.60;;
79375;SDS011;68846;53.150;18.136;2023-04-19T14:04:00;7.80;;;5.40;;
79375;SDS011;68846;53.150;18.136;2023-04-19T14:08:54;9.40;;;6.30;;
79375;SDS011;68846;53.150;18.136;2023-04-19T14:13:48;7.30;;;4.80;;
79375;SDS011;68846;53.150;18.136;2023-04-19T14:16:15;6.40;;;5.00;;
79375;SDS011;68846;53.150;18.136;2023-04-19T14:18:42;8.00;;;6.00;;
79375;SDS011;68846;53.150;18.136;2023-04-19T14:23:36;7.60;;;5.40;;
79375;SDS011;68846;53.150;18.136;2023-04-19T14:28:30;8.00;;;5.80;;
79375;SDS011;68846;53.150;18.136;2023-04-19T14:30:57;9.40;;;6.00;;
79375;SDS011;68846;53.150;18.136;2023-04-19T14:33:24;7.70;;;5.10;;
79375;SDS011;68846;53.150;18.136;2023-04-19T14:35:52;7.30;;;5.00;;
79375;SDS011;68846;53.150;18.136;2023-04-19T14:40:47;7.30;;;5.00;;
79375;SDS011;68846;53.150;18.136;2023-04-19T14:43:14;8.00;;;5.30;;
79375;SDS011;68846;53.150;18.136;2023-04-19T14:45:43;6.30;;;4.80;;
79375;SDS011;68846;53.150;18.136;2023-04-19T14:48:10;7.30;;;5.30;;
79375;SDS011;68846;53.150;18.136;2023-04-19T14:50:37;8.20;;;5.60;;
79375;SDS011;68846;53.150;18.136;2023-04-19T14:55:30;7.70;;;4.90;;
79375;SDS011;68846;53.150;18.136;2023-04-19T14:57:57;7.70;;;5.20;;
79375;SDS011;68846;53.150;18.136;2023-04-19T15:00:26;8.60;;;5.10;;
79375;SDS011;68846;53.150;18.136;2023-04-19T15:02:52;7.70;;;5.00;;
79375;SDS011;68846;53.150;18.136;2023-04-19T15:05:20;5.90;;;4.50;;
79375;SDS011;68846;53.150;18.136;2023-04-19T15:07:48;6.20;;;4.60;;
79375;SDS011;68846;53.150;18.136;2023-04-19T15:10:15;8.10;;;5.10;;
79375;SDS011;68846;53.150;18.136;2023-04-19T15:12:42;7.10;;;4.40;;
79375;SDS011;68846;53.150;18.136;2023-04-19T15:15:09;7.10;;;5.40;;
79375;SDS011;68846;53.150;18.136;2023-04-19T15:17:37;7.30;;;5.20;;
79375;SDS011;68846;53.150;18.136;2023-04-19T15:20:03;11.00;;;5.30;;
79375;SDS011;68846;53.150;18.136;2023-04-19T15:22:31;7.20;;;5.50;;
79375;SDS011;68846;53.150;18.136;2023-04-19T15:24:59;7.70;;;6.00;;
79375;SDS011;68846;53.150;18.136;2023-04-19T15:27:26;8.30;;;5.20;;
79375;SDS011;68846;53.150;18.136;2023-04-19T15:29:53;7.20;;;5.50;;
79375;SDS011;68846;53.150;18.136;2023-04-19T15:32:21;8.70;;;5.20;;
79375;SDS011;68846;53.150;18.136;2023-04-19T15:34:48;7.50;;;5.40;;
79375;SDS011;68846;53.150;18.136;2023-04-19T15:37:14;8.30;;;5.90;;
79375;SDS011;68846;53.150;18.136;2023-04-19T15:39:42;8.20;;;5.70;;
79375;SDS011;68846;53.150;18.136;2023-04-19T15:42:09;8.50;;;6.20;;
79375;SDS011;68846;53.150;18.136;2023-04-19T15:44:36;10.70;;;6.70;;
79375;SDS011;68846;53.150;18.136;2023-04-19T15:47:03;9.50;;;6.90;;
79375;SDS011;68846;53.150;18.136;2023-04-19T15:49:30;8.60;;;6.70;;
79375;SDS011;68846;53.150;18.136;2023-04-19T15:54:25;8.40;;;6.10;;
79375;SDS011;68846;53.150;18.136;2023-04-19T15:56:52;10.40;;;6.70;;
79375;SDS011;68846;53.150;18.136;2023-04-19T15:59:20;10.30;;;7.00;;
79375;SDS011;68846;53.150;18.136;2023-04-19T16:01:46;9.50;;;6.80;;
79375;SDS011;68846;53.150;18.136;2023-04-19T16:04:14;11.40;;;7.40;;
79375;SDS011;68846;53.150;18.136;2023-04-19T16:06:41;8.60;;;6.60;;
79375;SDS011;68846;53.150;18.136;2023-04-19T16:09:08;7.90;;;5.90;;
79375;SDS011;68846;53.150;18.136;2023-04-19T16:14:01;8.00;;;5.80;;
79375;SDS011;68846;53.150;18.136;2023-04-19T16:16:28;9.10;;;7.00;;
79375;SDS011;68846;53.150;18.136;2023-04-19T16:18:58;9.40;;;7.00;;
79375;SDS011;68846;53.150;18.136;2023-04-19T16:21:26;9.80;;;6.50;;